Time;durP1;ratioP1;P1;durP2;ratioP2;P2;SDS_P1;SDS_P2;PMS_P1;PMS_P2;Temp;Humidity;BMP_temperature;BMP_pressure;BME280_temperature;BME280_humidity;BME280_pressure;Samples;Min_cycle;Max_cycle;Signal;HPM_P1;HPM_P2
2023/07/18 00:00:37;;;;;;;1.83;1.40;;;;;;;-141.84;74.78;20700.03;5010317;28;20313;-60
2023/07/18 00:03:08;;;;;;;2.63;1.55;;;;;;;-141.84;74.10;20693.94;4990875;28;20244;-61
2023/07/18 00:05:37;;;;;;;1.55;1.45;;;;;;;-141.84;73.54;20734.59;5024923;28;20241;-60
2023/07/18 00:08:05;;;;;;;3.05;1.52;;;;;;;-141.84;73.43;20714.28;5016669;28;20238;-61
2023/07/18 00:10:35;;;;;;;2.47;1.55;;;;;;;-141.84;74.13;20673.63;5023911;28;20324;-61
2023/07/18 00:13:05;;;;;;;2.20;1.55;;;;;;;-141.84;74.52;20665.50;5024086;28;20284;-61
2023/07/18 00:15:33;;;;;;;1.63;1.35;;;;;;;-141.84;72.90;20698.00;5025004;28;20308;-61
2023/07/18 00:18:02;;;;;;;1.73;1.55;;;;;;;-141.84;71.39;20724.44;5018743;28;20202;-61
2023/07/18 00:20:32;;;;;;;2.07;1.70;;;;;;;-141.84;72.46;20702.09;5023882;28;20203;-61
2023/07/18 00:23:01;;;;;;;1.50;1.40;;;;;;;-141.84;73.28;20685.81;5024264;28;20265;-62
2023/07/18 00:25:29;;;;;;;2.40;1.63;;;;;;;-141.84;73.22;20704.13;5024227;28;20474;-61
2023/07/18 00:28:00;;;;;;;3.58;1.58;;;;;;;-141.84;73.24;20716.31;5023643;28;20737;-61
2023/07/18 00:30:30;;;;;;;3.90;1.55;;;;;;;-141.84;72.96;20716.31;5005847;28;20230;-61
2023/07/18 00:32:59;;;;;;;1.92;1.55;;;;;;;-141.84;73.59;20653.28;5024752;28;20248;-61
2023/07/18 00:35:28;;;;;;;1.60;1.40;;;;;;;-141.84;73.87;20635.00;5024527;28;20586;-62
2023/07/18 00:38:00;;;;;;;3.17;1.38;;;;;;;-141.84;74.23;20612.63;5023483;28;20268;-61
2023/07/18 00:40:29;;;;;;;2.00;1.40;;;;;;;-141.84;73.90;20655.31;5005175;28;20313;-60
2023/07/18 00:42:58;;;;;;;2.05;1.52;;;;;;;-141.84;73.66;20671.59;5024305;28;20321;-62
2023/07/18 00:45:27;;;;;;;2.40;1.30;;;;;;;-141.84;73.49;20669.56;5024311;28;20237;-60
2023/07/18 00:47:56;;;;;;;3.03;1.50;;;;;;;-141.84;73.41;20683.78;5022642;28;20221;-61
2023/07/18 00:50:25;;;;;;;3.10;1.40;;;;;;;-141.84;73.33;20647.19;5016995;28;20321;-59
2023/07/18 00:52:55;;;;;;;2.45;1.40;;;;;;;-141.84;72.86;20659.38;5017447;28;20237;-62
2023/07/18 00:55:24;;;;;;;3.60;1.42;;;;;;;-141.84;73.45;20687.84;5003567;28;20241;-61
2023/07/18 00:57:54;;;;;;;1.60;1.50;;;;;;;-141.84;73.02;20624.84;5008546;28;20706;-61
2023/07/18 01:00:23;;;;;;;2.37;1.50;;;;;;;-141.84;72.51;20689.88;5001221;28;20583;-61
2023/07/18 01:02:52;;;;;;;1.85;1.67;;;;;;;-141.84;73.57;20622.81;5024041;28;20296;-60
2023/07/18 01:05:24;;;;;;;1.83;1.73;;;;;;;-141.84;73.83;20655.31;5023546;28;20669;-61
2023/07/18 01:07:52;;;;;;;3.60;1.93;;;;;;;-141.84;72.94;20602.47;5023235;28;20673;-60
2023/07/18 01:10:24;;;;;;;1.58;1.40;;;;;;;-141.84;72.78;20635.00;5015511;28;20742;-61
2023/07/18 01:12:56;;;;;;;2.00;1.60;;;;;;;-141.84;72.26;20702.09;5022680;28;20236;-62
2023/07/18 01:15:30;;;;;;;1.90;1.53;;;;;;;-141.84;72.71;20687.84;5022675;28;20241;-62
2023/07/18 01:18:02;;;;;;;2.50;1.58;;;;;;;-141.84;72.49;20683.78;5022024;28;20662;-60
2023/07/18 01:20:33;;;;;;;2.17;1.75;;;;;;;-141.84;72.96;20647.19;4989489;28;20202;-62
2023/07/18 01:23:04;;;;;;;1.93;1.70;;;;;;;-141.84;73.62;20663.47;5022643;28;20253;-60
2023/07/18 01:25:33;;;;;;;3.45;2.05;;;;;;;-141.84;73.77;20622.81;5022749;28;20879;-61
2023/07/18 01:28:03;;;;;;;2.67;1.60;;;;;;;-141.84;73.26;20639.06;5014602;28;20245;-61
2023/07/18 01:30:31;;;;;;;2.50;1.50;;;;;;;-141.84;72.74;20657.34;5016582;28;20289;-61
2023/07/18 01:33:00;;;;;;;2.43;1.73;;;;;;;-141.84;73.53;20639.06;5005041;28;20238;-60
2023/07/18 01:35:29;;;;;;;1.90;1.45;;;;;;;-141.84;73.56;20620.78;5007395;28;20230;-61
2023/07/18 01:38:01;;;;;;;1.90;1.70;;;;;;;-141.84;72.44;20610.59;5026379;28;20230;-61
2023/07/18 01:40:31;;;;;;;2.30;1.80;;;;;;;-141.84;72.78;20635.00;5024132;28;20672;-60
2023/07/18 01:43:01;;;;;;;1.90;1.40;;;;;;;-141.84;73.00;20606.53;5026881;28;20885;-62
2023/07/18 01:45:29;;;;;;;5.23;1.80;;;;;;;-141.84;73.08;20606.53;5027399;28;20280;-62
2023/07/18 01:48:02;;;;;;;1.80;1.60;;;;;;;-141.84;73.13;20594.34;5027400;28;20591;-61
2023/07/18 01:50:31;;;;;;;1.73;1.40;;;;;;;-141.84;72.78;20598.41;4971390;28;20220;-61
2023/07/18 01:53:01;;;;;;;2.17;1.70;;;;;;;-141.84;72.49;20590.28;4968344;28;20390;-61
2023/07/18 01:55:31;;;;;;;3.00;1.70;;;;;;;-141.84;72.54;20586.22;4968898;28;20318;-61
2023/07/18 01:58:00;;;;;;;4.10;1.75;;;;;;;-141.84;72.38;20594.34;4966735;28;20326;-65
2023/07/18 02:00:28;;;;;;;1.93;1.50;;;;;;;-141.84;72.74;20610.59;4969619;28;20666;-60
2023/07/18 02:02:57;;;;;;;2.63;1.50;;;;;;;-141.84;72.96;20618.72;4987131;28;20204;-61
2023/07/18 02:05:28;;;;;;;1.98;1.63;;;;;;;-141.84;73.57;20602.47;4988043;28;20207;-62
2023/07/18 02:07:57;;;;;;;3.65;1.98;;;;;;;-141.84;72.50;20630.94;4987032;28;20239;-61
2023/07/18 02:10:28;;;;;;;2.30;1.80;;;;;;;-141.84;73.20;20578.09;4983988;28;20323;-62
2023/07/18 02:13:01;;;;;;;2.92;1.52;;;;;;;-141.84;73.75;20569.94;4988526;28;20269;-61
2023/07/18 02:15:30;;;;;;;1.80;1.53;;;;;;;-141.84;73.28;20561.81;4993422;28;20318;-62
2023/07/18 02:17:59;;;;;;;3.60;1.60;;;;;;;-141.84;72.62;20616.69;5006874;28;20305;-61
2023/07/18 02:20:28;;;;;;;3.93;1.80;;;;;;;-141.84;73.20;20594.34;5006759;28;20218;-64
2023/07/18 02:23:00;;;;;;;1.60;1.48;;;;;;;-141.84;72.78;20545.56;5006484;28;20231;-61
2023/07/18 02:25:28;;;;;;;2.50;1.60;;;;;;;-141.84;73.11;20582.16;5006471;28;20235;-61
2023/07/18 02:27:59;;;;;;;2.20;1.80;;;;;;;-141.84;72.79;20541.50;4990187;28;20334;-61
2023/07/18 02:30:28;;;;;;;2.63;1.90;;;;;;;-141.84;72.64;20602.47;4983759;28;20353;-61
2023/07/18 02:32:57;;;;;;;1.75;1.48;;;;;;;-141.84;72.93;20582.16;4986144;28;20207;-62
2023/07/18 02:35:26;;;;;;;2.67;2.00;;;;;;;-141.84;72.62;20561.81;4986605;28;20222;-62
2023/07/18 02:37:54;;;;;;;2.27;1.90;;;;;;;-141.84;72.89;20553.69;4984675;28;20296;-60
2023/07/18 02:40:23;;;;;;;3.13;2.10;;;;;;;-141.84;73.00;20525.22;4978853;28;20685;-61
2023/07/18 02:42:51;;;;;;;2.00;1.80;;;;;;;-141.84;72.55;20574.00;4986613;28;20636;-60
2023/07/18 02:45:22;;;;;;;2.80;1.80;;;;;;;-141.84;72.57;20541.50;4987206;28;20231;-62
2023/07/18 02:47:50;;;;;;;2.43;1.83;;;;;;;-141.84;72.27;20576.03;4985527;28;20208;-61
2023/07/18 02:50:19;;;;;;;1.77;1.40;;;;;;;-141.84;72.39;20539.47;5015764;28;20799;-61
2023/07/18 02:52:48;;;;;;;3.40;2.20;;;;;;;-141.84;72.70;20537.44;5025917;28;20713;-61
2023/07/18 02:55:17;;;;;;;2.38;2.17;;;;;;;-141.84;72.30;20567.91;5024908;28;20782;-62
2023/07/18 02:57:46;;;;;;;3.23;1.90;;;;;;;-141.84;71.96;20596.38;5025138;28;20656;-61
2023/07/18 03:00:19;;;;;;;2.13;1.87;;;;;;;-141.84;72.71;20559.78;5018853;28;20277;-62
2023/07/18 03:02:51;;;;;;;7.72;1.95;;;;;;;-141.84;72.04;20590.28;5005465;28;20682;-61
2023/07/18 03:05:21;;;;;;;2.47;1.90;;;;;;;-141.84;71.88;20569.94;5006778;28;20238;-60
2023/07/18 03:07:50;;;;;;;3.50;1.90;;;;;;;-141.84;70.89;20602.47;5005411;28;20271;-60
2023/07/18 03:10:19;;;;;;;3.13;2.10;;;;;;;-141.84;70.71;20610.59;4998106;28;20658;-61
2023/07/18 03:12:49;;;;;;;2.87;2.20;;;;;;;-141.84;71.41;20584.19;5005431;28;20833;-61
2023/07/18 03:15:19;;;;;;;2.30;2.08;;;;;;;-141.84;71.67;20584.19;5009949;28;20260;-61
2023/07/18 03:17:49;;;;;;;2.10;1.90;;;;;;;-141.84;71.36;20565.88;5025188;28;20297;-62
2023/07/18 03:20:19;;;;;;;2.88;1.80;;;;;;;-141.84;70.99;20604.50;5018117;28;20297;-61
2023/07/18 03:22:50;;;;;;;3.58;2.30;;;;;;;-141.84;70.72;20602.47;5025053;28;20230;-60
2023/07/18 03:25:20;;;;;;;3.07;2.13;;;;;;;-141.84;70.54;20580.13;5008663;28;20277;-61
2023/07/18 03:27:49;;;;;;;5.20;2.00;;;;;;;-141.84;70.04;20586.22;5020235;28;20300;-61
2023/07/18 03:30:18;;;;;;;2.10;1.90;;;;;;;-141.84;70.20;20580.13;5013433;28;20230;-61
2023/07/18 03:32:47;;;;;;;3.63;2.38;;;;;;;-141.84;70.33;20582.16;5005334;28;20248;-62
2023/07/18 03:35:17;;;;;;;3.13;2.20;;;;;;;-141.84;70.38;20594.34;5004810;28;20231;-60
2023/07/18 03:37:46;;;;;;;5.37;2.50;;;;;;;-141.84;70.59;20630.94;5001338;28;20238;-61
2023/07/18 03:40:16;;;;;;;3.73;2.10;;;;;;;-141.84;70.94;20604.50;5017267;28;20229;-61
2023/07/18 03:42:46;;;;;;;4.03;2.17;;;;;;;-141.84;71.20;20578.09;5006206;28;20238;-61
2023/07/18 03:45:15;;;;;;;2.85;2.03;;;;;;;-141.84;70.57;20596.38;5024205;28;20942;-61
2023/07/18 03:47:44;;;;;;;2.95;1.98;;;;;;;-141.84;70.27;20602.47;5025053;28;20241;-61
2023/07/18 03:50:16;;;;;;;3.87;2.20;;;;;;;-141.84;70.75;20614.66;5016976;28;20242;-60
2023/07/18 03:52:45;;;;;;;2.63;2.40;;;;;;;-141.84;69.69;20671.59;5025660;28;20226;-61
2023/07/18 03:55:13;;;;;;;3.38;2.22;;;;;;;-141.84;68.45;20720.38;5023941;28;20233;-61
2023/07/18 03:57:42;;;;;;;4.80;2.40;;;;;;;-141.84;68.58;20693.94;5024339;28;20771;-61
2023/07/18 04:00:16;;;;;;;3.78;2.20;;;;;;;-141.84;68.33;20710.22;5015602;28;20701;-60
2023/07/18 04:02:49;;;;;;;5.20;2.40;;;;;;;-141.84;67.93;20712.25;5024236;28;20263;-64
2023/07/18 04:05:20;;;;;;;5.63;2.53;;;;;;;-141.84;67.73;20728.50;5024135;28;20198;-61
2023/07/18 04:07:48;;;;;;;4.00;2.67;;;;;;;-141.84;66.74;20781.38;5023705;28;20320;-60
2023/07/18 04:10:17;;;;;;;3.30;2.47;;;;;;;-141.84;66.30;20765.09;5016984;28;20249;-61
2023/07/18 04:12:46;;;;;;;3.60;2.63;;;;;;;-141.84;66.43;20785.44;5024684;28;20233;-60
2023/07/18 04:15:15;;;;;;;3.45;2.65;;;;;;;-141.84;66.63;20787.47;5024527;28;20587;-60
2023/07/18 04:17:44;;;;;;;3.22;2.22;;;;;;;-141.84;66.27;20797.63;5024698;28;20205;-61
2023/07/18 04:20:13;;;;;;;3.83;2.53;;;;;;;-141.84;65.62;20797.63;5016265;28;20237;-60
2023/07/18 04:22:43;;;;;;;4.82;2.60;;;;;;;-141.84;64.90;20822.03;5024460;28;20280;-61
2023/07/18 04:25:12;;;;;;;3.28;2.20;;;;;;;-141.84;64.84;20836.25;5024145;28;20230;-61
2023/07/18 04:27:41;;;;;;;3.20;2.30;;;;;;;-141.84;65.48;20793.56;5023804;28;20238;-61
2023/07/18 04:30:10;;;;;;;3.03;2.50;;;;;;;-141.84;64.64;20872.84;5014054;28;20658;-61
2023/07/18 04:32:41;;;;;;;3.30;2.50;;;;;;;-141.84;63.98;20866.75;5005231;28;20257;-62
2023/07/18 04:35:10;;;;;;;3.47;2.78;;;;;;;-141.84;64.02;20899.28;5003990;28;20242;-61
2023/07/18 04:37:39;;;;;;;3.30;2.53;;;;;;;-141.84;63.96;20887.06;5021412;28;20229;-60
2023/07/18 04:40:11;;;;;;;3.28;2.28;;;;;;;-141.84;64.27;20858.59;5016128;28;20226;-60
2023/07/18 04:42:42;;;;;;;6.65;2.85;;;;;;;-141.84;64.42;20891.13;5024284;28;20253;-60
2023/07/18 04:45:11;;;;;;;4.55;2.42;;;;;;;-141.84;64.85;20846.41;5027235;28;20265;-61
2023/07/18 04:47:41;;;;;;;3.25;2.40;;;;;;;-141.84;65.42;20783.41;5024321;28;20267;-61
2023/07/18 04:50:10;;;;;;;3.83;2.20;;;;;;;-141.84;64.92;20856.56;5015323;28;20242;-61
2023/07/18 04:52:44;;;;;;;3.73;2.37;;;;;;;-141.84;65.15;20824.06;5023368;28;20655;-61
2023/07/18 04:55:15;;;;;;;2.60;2.40;;;;;;;-141.84;66.13;20801.69;5023616;28;20761;-60
2023/07/18 04:57:44;;;;;;;3.45;2.33;;;;;;;-141.84;64.64;20862.69;5025834;28;20258;-61
2023/07/18 05:00:14;;;;;;;5.13;2.50;;;;;;;-141.84;63.78;21068.00;5012123;28;20781;-62
2023/07/18 05:02:43;;;;;;;4.25;2.60;;;;;;;-141.84;55.07;21560.03;5004994;28;20671;-60
2023/07/18 05:05:13;;;;;;;5.80;2.50;;;;;;;-141.84;49.01;22052.09;5004373;28;20229;-62
2023/07/18 05:07:44;;;;;;;4.53;2.53;;;;;;;-141.84;46.70;22322.56;5004630;28;20270;-61
2023/07/18 05:10:14;;;;;;;4.13;2.42;;;;;;;-141.84;46.68;22267.66;4995060;28;20288;-61
2023/07/18 05:12:43;;;;;;;3.63;2.30;;;;;;;-141.84;46.33;22336.81;5003947;28;20281;-60
2023/07/18 05:15:11;;;;;;;3.85;2.35;;;;;;;-141.84;44.10;22635.78;5007835;28;20743;-62
2023/07/18 05:17:41;;;;;;;5.15;2.50;;;;;;;-141.84;42.16;22953.06;5004019;28;20238;-61
2023/07/18 05:20:11;;;;;;;3.20;2.40;;;;;;;-141.84;40.11;23152.41;4995025;28;20394;-62
2023/07/18 05:22:41;;;;;;;6.05;2.25;;;;;;;-141.84;39.48;23325.31;5003569;28;20276;-61
2023/07/18 05:25:12;;;;;;;2.67;2.10;;;;;;;-141.84;38.97;23351.75;5004322;28;20234;-61
2023/07/18 05:27:42;;;;;;;3.15;2.20;;;;;;;-141.84;39.97;23254.09;5016789;28;20272;-63
2023/07/18 05:30:16;;;;;;;5.57;2.22;;;;;;;-141.84;40.04;23217.50;5011524;28;20245;-64
2023/07/18 05:32:45;;;;;;;4.13;2.47;;;;;;;-141.84;39.39;23272.41;5002353;28;20575;-62
2023/07/18 05:35:15;;;;;;;5.40;2.22;;;;;;;-141.84;39.32;23237.84;5016810;28;20283;-63
2023/07/18 05:37:44;;;;;;;8.50;2.50;;;;;;;-141.84;40.67;23001.88;5022576;28;20294;-64
2023/07/18 05:40:13;;;;;;;4.65;2.50;;;;;;;-141.84;43.11;22544.25;5014057;28;20317;-64
2023/07/18 05:42:44;;;;;;;4.82;2.15;;;;;;;-141.84;45.34;22269.69;5023204;28;20325;-63
2023/07/18 05:45:13;;;;;;;3.83;2.20;;;;;;;-141.84;48.30;21960.59;5022483;28;20651;-64
2023/07/18 05:47:42;;;;;;;4.07;2.58;;;;;;;-141.84;49.59;21832.50;5021836;28;20240;-64
2023/07/18 05:50:10;;;;;;;4.38;2.55;;;;;;;-141.84;50.91;21732.84;5014480;28;20245;-63
2023/07/18 05:52:39;;;;;;;4.78;2.60;;;;;;;-141.84;51.49;21700.31;5022779;28;20250;-64
2023/07/18 05:55:09;;;;;;;4.10;2.53;;;;;;;-141.84;51.42;21702.34;5023702;28;20271;-64
2023/07/18 05:57:38;;;;;;;5.97;2.67;;;;;;;-141.84;51.40;21696.25;5022726;28;20234;-63
2023/07/18 06:00:13;;;;;;;4.20;2.80;;;;;;;-141.84;52.16;21651.53;5012258;28;20579;-64
2023/07/18 06:02:41;;;;;;;4.25;2.45;;;;;;;-141.84;52.63;21635.25;5003535;28;20215;-64
2023/07/18 06:05:11;;;;;;;4.45;2.25;;;;;;;-141.84;52.37;21606.78;5002694;28;20613;-64
2023/07/18 06:07:40;;;;;;;4.22;2.10;;;;;;;-141.84;52.13;21635.25;5002142;28;20270;-63
2023/07/18 06:10:09;;;;;;;4.07;2.38;;;;;;;-141.84;51.62;21684.06;4994031;28;20626;-63
2023/07/18 06:12:38;;;;;;;3.10;2.05;;;;;;;-141.84;51.91;21657.63;5007978;28;20313;-63
2023/07/18 06:15:07;;;;;;;2.97;2.35;;;;;;;-141.84;51.86;21696.25;5020429;28;20285;-63
2023/07/18 06:17:38;;;;;;;6.25;2.65;;;;;;;-141.84;52.40;21659.66;5023068;28;20312;-63
2023/07/18 06:20:11;;;;;;;2.83;2.28;;;;;;;-141.84;51.28;21692.19;5015431;28;20229;-61
2023/07/18 06:22:41;;;;;;;3.47;2.30;;;;;;;-141.84;51.30;21724.72;5026922;28;20237;-60
2023/07/18 06:25:10;;;;;;;3.42;2.03;;;;;;;-141.84;51.84;21688.13;5025969;28;20234;-60
2023/07/18 06:27:39;;;;;;;3.92;2.58;;;;;;;-141.84;51.71;21661.69;5024918;28;20317;-61
2023/07/18 06:30:09;;;;;;;3.40;2.40;;;;;;;-141.84;51.67;21675.94;5017235;28;20325;-62
2023/07/18 06:32:39;;;;;;;3.25;2.65;;;;;;;-141.84;51.45;21732.84;5025984;28;20208;-61
2023/07/18 06:35:10;;;;;;;3.42;2.20;;;;;;;-141.84;50.90;21745.06;5021057;28;20229;-63
2023/07/18 06:37:51;;;;;;;5.20;2.67;;;;;;;-141.84;50.09;21781.66;5024514;28;20217;-64
2023/07/18 06:40:19;;;;;;;3.30;2.22;;;;;;;-141.84;50.60;21751.16;5024459;28;20831;-63
2023/07/18 06:42:48;;;;;;;4.80;2.20;;;;;;;-141.84;50.74;21753.19;5024317;28;20249;-63
2023/07/18 06:45:16;;;;;;;3.15;2.42;;;;;;;-141.84;50.26;21749.13;5024637;28;20316;-64
2023/07/18 06:47:46;;;;;;;3.42;2.40;;;;;;;-141.84;50.89;21667.78;5017620;28;20714;-69
2023/07/18 06:50:15;;;;;;;3.45;2.42;;;;;;;-141.84;50.78;21700.31;5024844;28;20640;-67
2023/07/18 06:52:43;;;;;;;3.55;2.17;;;;;;;-141.84;50.86;21730.81;5024066;28;20680;-74
2023/07/18 06:55:12;;;;;;;4.18;2.53;;;;;;;-141.84;51.02;21682.03;5024744;28;20303;-71
2023/07/18 06:57:40;;;;;;;4.40;2.45;;;;;;;-141.84;50.83;21694.22;5016706;28;20725;-71
2023/07/18 07:00:13;;;;;;;6.03;2.80;;;;;;;-141.84;50.64;21720.66;5023976;28;20222;-70
2023/07/18 07:02:42;;;;;;;3.92;2.38;;;;;;;-141.84;49.68;21775.56;5024531;28;20283;-65
2023/07/18 07:05:12;;;;;;;4.60;2.80;;;;;;;-141.84;50.33;21804.03;5024206;28;20217;-64
2023/07/18 07:07:40;;;;;;;3.10;2.78;;;;;;;-141.84;49.19;21838.59;5017006;28;20755;-64
2023/07/18 07:10:09;;;;;;;3.55;2.53;;;;;;;-141.84;49.49;21842.66;5024220;28;20225;-72
2023/07/18 07:12:38;;;;;;;3.10;2.42;;;;;;;-141.84;49.63;21852.81;5024071;28;20723;-71
2023/07/18 07:15:07;;;;;;;3.92;2.40;;;;;;;-141.84;49.33;21887.41;5024353;28;20620;-72
2023/07/18 07:17:36;;;;;;;4.07;2.33;;;;;;;-141.84;49.14;21871.13;5016108;28;20663;-72
2023/07/18 07:20:06;;;;;;;5.15;3.03;;;;;;;-141.84;48.85;21871.13;5023808;28;20214;-71
2023/07/18 07:22:36;;;;;;;5.18;2.47;;;;;;;-141.84;49.33;21844.69;5025009;28;20260;-65
2023/07/18 07:25:05;;;;;;;5.22;2.70;;;;;;;-141.84;49.55;21850.78;5024312;28;20229;-72
2023/07/18 07:27:33;;;;;;;3.40;2.50;;;;;;;-141.84;49.37;21797.94;5016771;28;20819;-70
2023/07/18 07:30:02;;;;;;;2.50;2.22;;;;;;;-141.84;49.84;21765.38;5023669;28;20317;-64
2023/07/18 07:32:30;;;;;;;4.32;2.63;;;;;;;-141.84;50.11;21775.56;5023883;28;20368;-63
2023/07/18 07:34:59;;;;;;;3.85;2.42;;;;;;;-141.84;49.63;21806.06;5024397;28;20640;-64
2023/07/18 07:37:28;;;;;;;4.38;2.58;;;;;;;-141.84;49.07;21826.41;5016390;28;20336;-64
2023/07/18 07:39:57;;;;;;;4.57;2.33;;;;;;;-141.84;48.51;21824.34;5024308;28;20230;-73
2023/07/18 07:42:26;;;;;;;2.85;2.25;;;;;;;-141.84;48.10;21842.66;5023704;28;20249;-69
2023/07/18 07:44:55;;;;;;;4.53;2.47;;;;;;;-141.84;47.08;21834.53;5009708;28;20315;-70
2023/07/18 07:47:23;;;;;;;4.00;2.25;;;;;;;-141.84;47.86;21802.00;4996896;28;20265;-69
2023/07/18 07:49:52;;;;;;;4.47;2.28;;;;;;;-141.84;48.18;21818.25;5004066;28;20234;-65
2023/07/18 07:52:20;;;;;;;4.80;2.45;;;;;;;-141.84;48.00;21806.06;5003727;28;20274;-66
2023/07/18 07:54:49;;;;;;;4.30;2.25;;;;;;;-141.84;48.10;21810.13;5004258;28;20327;-67
2023/07/18 07:57:19;;;;;;;2.88;2.45;;;;;;;-141.84;47.69;21820.28;5003154;28;20262;-66
2023/07/18 07:59:48;;;;;;;3.35;2.60;;;;;;;-141.84;47.30;21838.59;4999560;28;20690;-74
2023/07/18 08:02:16;;;;;;;4.32;2.60;;;;;;;-141.84;47.38;21826.41;5014971;28;20214;-64
2023/07/18 08:04:45;;;;;;;5.57;2.30;;;;;;;-141.84;47.71;21838.59;5004356;28;20214;-64
2023/07/18 08:07:15;;;;;;;3.47;2.40;;;;;;;-141.84;46.83;21844.69;5003225;28;20237;-65
2023/07/18 08:09:43;;;;;;;3.15;2.28;;;;;;;-141.84;46.93;21842.66;4995949;28;20944;-63
2023/07/18 08:12:13;;;;;;;3.33;2.40;;;;;;;-141.84;46.98;21820.28;5003804;28;20272;-67
2023/07/18 08:14:44;;;;;;;3.58;2.40;;;;;;;-141.84;46.69;21848.75;5003426;28;20729;-67
2023/07/18 08:17:13;;;;;;;4.95;2.20;;;;;;;-141.84;47.03;21846.72;5003183;28;20277;-68
2023/07/18 08:19:41;;;;;;;5.80;2.20;;;;;;;-141.84;46.81;21822.31;4996078;28;20210;-73
2023/07/18 08:22:10;;;;;;;4.00;2.03;;;;;;;-141.84;46.46;21830.47;5003241;28;20262;-74
2023/07/18 08:24:39;;;;;;;4.00;2.25;;;;;;;-141.84;45.69;21848.75;5003574;28;20305;-68
2023/07/18 08:27:08;;;;;;;4.43;2.28;;;;;;;-141.84;45.74;21873.16;5002946;28;20234;-67
2023/07/18 08:29:37;;;;;;;4.38;2.15;;;;;;;-141.84;45.66;21846.72;5012701;28;20226;-68
2023/07/18 08:32:08;;;;;;;4.07;2.22;;;;;;;-141.84;44.52;21924.00;5022769;28;20214;-68
2023/07/18 08:34:36;;;;;;;3.85;2.13;;;;;;;-141.84;44.68;21891.47;5023689;28;20272;-67
2023/07/18 08:37:08;;;;;;;3.53;1.90;;;;;;;-141.84;45.33;21883.31;5022606;28;20230;-68
2023/07/18 08:39:37;;;;;;;2.92;2.00;;;;;;;-141.84;45.40;21905.69;5014084;28;20313;-67
2023/07/18 08:42:07;;;;;;;3.85;1.90;;;;;;;-141.84;44.64;21891.47;5022244;28;20234;-65
2023/07/18 08:44:36;;;;;;;3.78;2.17;;;;;;;-141.84;44.34;21901.63;5022923;28;20248;-68
2023/07/18 08:47:07;;;;;;;2.92;1.95;;;;;;;-141.84;44.35;21968.72;5022557;28;20579;-73
2023/07/18 08:49:40;;;;;;;3.00;2.00;;;;;;;-141.84;43.00;21956.53;5015999;28;20560;-73
2023/07/18 08:52:09;;;;;;;4.82;1.80;;;;;;;-141.84;42.69;21952.47;5022658;28;20226;-73
2023/07/18 08:54:38;;;;;;;3.08;1.63;;;;;;;-141.84;43.35;21909.75;5022590;28;20304;-72
2023/07/18 08:57:07;;;;;;;2.95;2.00;;;;;;;-141.84;43.73;21915.88;5022249;28;20689;-72
2023/07/18 08:59:37;;;;;;;2.90;1.88;;;;;;;-141.84;42.08;22001.28;5014972;28;20252;-69
2023/07/18 09:02:08;;;;;;;4.35;2.20;;;;;;;-141.84;41.84;22052.09;5004706;28;20208;-69
2023/07/18 09:04:36;;;;;;;2.72;1.70;;;;;;;-141.84;42.32;21993.13;5000346;28;20219;-68
2023/07/18 09:07:05;;;;;;;3.28;1.90;;;;;;;-141.84;42.32;22003.31;5021007;28;20230;-69
2023/07/18 09:09:34;;;;;;;6.43;2.15;;;;;;;-141.84;41.96;21999.25;5014117;28;20264;-68
2023/07/18 09:12:04;;;;;;;2.05;1.85;;;;;;;-141.84;42.23;22021.59;5021224;28;20234;-68
2023/07/18 09:14:34;;;;;;;2.97;1.83;;;;;;;-141.84;42.65;21991.09;5022020;28;20349;-69
2023/07/18 09:17:05;;;;;;;1.95;1.67;;;;;;;-141.84;41.68;22003.31;5021979;28;20260;-67
2023/07/18 09:19:39;;;;;;;2.25;1.70;;;;;;;-141.84;42.06;21999.25;5015322;28;20652;-68
2023/07/18 09:22:09;;;;;;;3.35;1.83;;;;;;;-141.84;42.58;22029.75;5021743;28;20308;-69
2023/07/18 09:24:38;;;;;;;4.38;1.92;;;;;;;-141.84;41.96;22043.97;5022114;28;20238;-69
2023/07/18 09:27:08;;;;;;;2.30;1.80;;;;;;;-141.84;42.28;22076.50;5021096;28;20236;-68
2023/07/18 09:29:37;;;;;;;2.55;1.60;;;;;;;-141.84;41.47;22080.56;5013780;28;20786;-69
2023/07/18 09:32:07;;;;;;;2.65;1.83;;;;;;;-141.84;41.39;22088.72;5003663;28;20670;-68
2023/07/18 09:34:37;;;;;;;2.38;1.50;;;;;;;-141.84;40.09;22119.22;5008992;28;20210;-68
2023/07/18 09:37:06;;;;;;;2.42;1.40;;;;;;;-141.84;39.65;22098.88;5010528;28;20222;-69
2023/07/18 09:39:37;;;;;;;1.60;1.20;;;;;;;-141.84;39.33;22100.91;5002637;28;20788;-69
2023/07/18 09:42:06;;;;;;;1.58;1.30;;;;;;;-141.84;39.70;22190.38;5021213;28;20671;-69
2023/07/18 09:44:42;;;;;;;3.22;2.13;;;;;;;-141.84;40.54;22141.59;5020694;28;20245;-67
2023/07/18 09:47:13;;;;;;;2.05;1.50;;;;;;;-141.84;39.88;22172.09;5021631;28;20290;-68
2023/07/18 09:49:44;;;;;;;2.10;1.60;;;;;;;-141.84;38.94;22218.84;5015271;28;20298;-67
2023/07/18 09:52:13;;;;;;;2.25;1.38;;;;;;;-141.84;38.68;22233.09;5022007;28;20229;-68
2023/07/18 09:54:44;;;;;;;3.38;1.88;;;;;;;-141.84;38.58;22249.38;5025691;28;20712;-69
2023/07/18 09:57:15;;;;;;;2.22;1.58;;;;;;;-141.84;38.24;22261.56;5026074;28;20315;-68
2023/07/18 09:59:45;;;;;;;3.42;1.80;;;;;;;-141.84;38.82;22267.66;5018116;28;20373;-68
2023/07/18 10:02:14;;;;;;;1.77;1.42;;;;;;;-141.84;38.95;22239.19;5006380;28;20214;-69
2023/07/18 10:04:45;;;;;;;2.83;1.88;;;;;;;-141.84;39.57;22253.44;5006242;28;20233;-69
2023/07/18 10:07:13;;;;;;;2.45;1.77;;;;;;;-141.84;39.33;22257.50;5006170;28;20276;-68
2023/07/18 10:09:42;;;;;;;4.38;1.90;;;;;;;-141.84;39.26;22296.13;5013153;28;20229;-67
2023/07/18 10:12:12;;;;;;;2.35;1.65;;;;;;;-141.84;39.91;22371.38;5025170;28;20253;-68
2023/07/18 10:14:50;;;;;;;1.70;1.50;;;;;;;-141.84;39.01;22365.28;5024772;28;20317;-70
2023/07/18 10:17:40;;;;;;;2.03;1.73;;;;;;;-141.84;38.95;22383.59;5025587;28;20217;-68
2023/07/18 10:20:14;;;;;;;3.20;1.77;;;;;;;-141.84;39.08;22349.00;5025679;28;20226;-69
2023/07/18 10:22:49;;;;;;;3.15;1.70;;;;;;;-141.84;39.68;22318.50;5025539;28;20268;-68
2023/07/18 10:25:20;;;;;;;2.05;1.58;;;;;;;-141.84;39.44;22310.38;5025056;28;20232;-69
2023/07/18 10:27:50;;;;;;;3.55;1.65;;;;;;;-141.84;39.70;22367.31;5024219;28;20523;-70
2023/07/18 10:30:21;;;;;;;5.28;1.63;;;;;;;-141.84;38.59;22418.16;5022171;28;20226;-68
2023/07/18 10:32:54;;;;;;;3.28;1.58;;;;;;;-141.84;38.55;22332.75;5006150;28;20774;-68
2023/07/18 10:35:26;;;;;;;2.63;1.38;;;;;;;-141.84;38.25;22342.91;5012506;28;20230;-67
2023/07/18 10:37:56;;;;;;;2.05;1.35;;;;;;;-141.84;38.34;22361.22;5025322;28;20213;-68
2023/07/18 10:40:34;;;;;;;3.33;1.75;;;;;;;-141.84;38.20;22408.00;5025380;28;20329;-69
2023/07/18 10:43:04;;;;;;;3.53;1.40;;;;;;;-141.84;37.46;22438.50;5024813;28;20316;-68
2023/07/18 10:45:38;;;;;;;3.80;1.60;;;;;;;-141.84;37.43;22344.94;5017545;28;20228;-69
2023/07/18 10:48:14;;;;;;;2.33;1.35;;;;;;;-141.84;37.66;22351.03;5024768;28;20317;-68
2023/07/18 10:50:45;;;;;;;2.20;1.40;;;;;;;-141.84;37.69;22349.00;5025679;28;20228;-68
2023/07/18 10:53:15;;;;;;;3.83;1.60;;;;;;;-141.84;37.28;22363.25;5025083;28;20202;-69
2023/07/18 10:55:45;;;;;;;3.13;1.33;;;;;;;-141.84;37.64;22344.94;5019339;28;20263;-69
2023/07/18 10:58:17;;;;;;;2.20;1.38;;;;;;;-141.84;37.36;22371.38;5025367;28;20229;-69
2023/07/18 11:00:46;;;;;;;2.33;1.55;;;;;;;-141.84;37.92;22349.00;5017745;28;20245;-70
2023/07/18 11:03:21;;;;;;;3.33;1.45;;;;;;;-141.84;37.81;22342.91;5005209;28;20328;-69
2023/07/18 11:05:52;;;;;;;2.20;1.52;;;;;;;-141.84;37.27;22401.88;5004184;28;20257;-71
2023/07/18 11:08:25;;;;;;;4.82;1.60;;;;;;;-141.84;36.84;22428.31;5008458;28;20745;-70
2023/07/18 11:10:55;;;;;;;2.80;1.63;;;;;;;-141.84;36.34;22464.94;5026038;28;20214;-69
2023/07/18 11:13:29;;;;;;;2.05;1.50;;;;;;;-141.84;36.64;22444.59;5017616;28;20391;-69
2023/07/18 11:15:58;;;;;;;3.92;1.67;;;;;;;-141.84;36.56;22489.34;5024898;28;20248;-68
2023/07/18 11:18:31;;;;;;;2.30;1.60;;;;;;;-141.84;36.48;22517.81;5024905;28;20260;-68
2023/07/18 11:21:03;;;;;;;3.40;1.50;;;;;;;-141.84;35.98;22589.00;5023896;28;20257;-70
2023/07/18 11:23:32;;;;;;;1.85;1.30;;;;;;;-141.84;35.04;22550.34;5016745;28;20236;-68
2023/07/18 11:26:08;;;;;;;1.92;1.30;;;;;;;-141.84;34.74;22572.72;5025207;28;20300;-70
2023/07/18 11:28:37;;;;;;;3.40;1.38;;;;;;;-141.84;35.03;22566.63;5023812;28;20209;-68